Terminal Aerodrome Forecast
Issued by NWS Pendleton, OR

Home | Current Version | Previous Version | Text Only | Print | Product List | Glossary On
Versions: 1 2 3 4 5 6 7 8 9 10 11 12 13 14 15
000
FTUS46 KPDT 301124
TAFPDT
TAF
KPDT 301124Z 3012/3112 16008KT P6SM SCT060 BKN080
     FM301500 24011KT P6SM -SHRA OVC060
     FM302200 27017G25KT P6SM SCT060 BKN080
     FM310400 25014G20KT P6SM SCT080
     FM310700 22010KT P6SM SCT070=

USA.gov is the U.S. government's official web portal to all federal, state and local government web resources and services.